createdAt,value
2018-03-14T00:02:12.060Z,3.20
2018-03-14T00:04:46.348Z,2.90
2018-03-14T00:07:21.428Z,3.03
2018-03-14T00:09:55.189Z,2.40
2018-03-14T00:12:30.120Z,2.80
2018-03-14T00:15:04.127Z,2.60
2018-03-14T00:17:40.796Z,2.33
2018-03-14T00:20:15.648Z,2.73
2018-03-14T00:22:51.174Z,2.40
2018-03-14T00:25:26.104Z,2.50
2018-03-14T00:28:01.142Z,2.50
2018-03-14T00:30:36.045Z,2.43
2018-03-14T00:33:09.915Z,2.30
2018-03-14T00:35:44.604Z,2.20
2018-03-14T00:38:18.702Z,2.47
2018-03-14T00:40:52.407Z,2.17
2018-03-14T00:43:27.647Z,2.37
2018-03-14T00:46:01.672Z,2.60
2018-03-14T00:48:37.204Z,2.50
2018-03-14T00:51:11.004Z,2.50
2018-03-14T00:53:44.661Z,2.37
2018-03-14T00:56:19.232Z,2.50
2018-03-14T00:58:53.404Z,2.73
2018-03-14T01:01:27.166Z,2.70
2018-03-14T01:04:00.947Z,2.60
2018-03-14T01:06:36.498Z,2.90
2018-03-14T01:09:11.404Z,2.80
2018-03-14T01:11:45.444Z,3.07
2018-03-14T01:14:19.139Z,2.97
2018-03-14T01:16:53.819Z,2.97
2018-03-14T01:19:28.763Z,2.80
2018-03-14T01:22:02.527Z,2.80
2018-03-14T01:24:38.562Z,2.67
2018-03-14T01:27:12.459Z,2.70
2018-03-14T01:29:47.783Z,2.93
2018-03-14T01:32:21.606Z,3.00
2018-03-14T01:34:56.300Z,3.20
2018-03-14T01:37:31.583Z,3.10
2018-03-14T01:40:07.315Z,3.00
2018-03-14T01:42:41.854Z,2.90
2018-03-14T01:45:16.072Z,2.90
2018-03-14T01:47:51.217Z,2.97
2018-03-14T01:50:25.442Z,3.23
2018-03-14T01:53:11.223Z,3.00
2018-03-14T01:55:44.923Z,3.00
2018-03-14T01:58:19.725Z,3.37
2018-03-14T02:00:53.531Z,3.53
2018-03-14T02:03:28.055Z,3.40
2018-03-14T02:06:02.031Z,3.57
2018-03-14T02:08:36.865Z,3.33
2018-03-14T02:11:11.452Z,3.47
2018-03-14T02:13:46.052Z,4.07
2018-03-14T02:16:21.298Z,4.00
2018-03-14T02:18:55.284Z,4.07
2018-03-14T02:21:29.409Z,3.67
2018-03-14T02:24:03.094Z,3.57
2018-03-14T02:26:36.827Z,3.57
2018-03-14T02:29:11.618Z,3.13
2018-03-14T02:31:45.852Z,3.37
2018-03-14T02:34:20.572Z,3.40
2018-03-14T02:37:01.059Z,3.27
2018-03-14T02:39:35.875Z,3.17
2018-03-14T02:42:10.980Z,2.97
2018-03-14T02:44:45.886Z,2.80
2018-03-14T02:47:20.255Z,3.13
2018-03-14T02:49:54.763Z,3.60
2018-03-14T02:52:30.045Z,3.53
2018-03-14T02:55:04.899Z,3.60
2018-03-14T02:57:39.470Z,3.73
2018-03-14T03:00:13.470Z,3.77
2018-03-14T03:02:47.988Z,3.80
2018-03-14T03:05:22.401Z,3.90
2018-03-14T03:07:57.820Z,3.53
2018-03-14T03:10:31.596Z,3.70
2018-03-14T03:13:06.909Z,4.20
2018-03-14T03:15:41.026Z,4.77
2018-03-14T03:18:15.840Z,5.10
2018-03-14T03:20:50.476Z,5.80
2018-03-14T03:23:25.412Z,5.57
2018-03-14T03:25:59.598Z,6.77
2018-03-14T03:28:34.595Z,6.13
2018-03-14T03:31:09.044Z,6.20
2018-03-14T03:33:44.212Z,6.37
2018-03-14T03:36:18.918Z,6.73
2018-03-14T03:38:53.507Z,6.87
2018-03-14T03:41:28.380Z,6.83
2018-03-14T03:44:03.862Z,6.50
2018-03-14T03:46:38.459Z,7.40
2018-03-14T03:49:12.972Z,7.10
2018-03-14T03:51:46.887Z,7.70
2018-03-14T03:54:20.975Z,7.40
2018-03-14T03:56:55.175Z,7.40
2018-03-14T03:59:29.092Z,8.03
2018-03-14T04:02:03.067Z,8.50
2018-03-14T04:04:37.632Z,9.83
2018-03-14T04:07:11.497Z,9.70
2018-03-14T04:09:46.372Z,9.60
2018-03-14T04:12:20.479Z,9.77
2018-03-14T04:14:54.501Z,9.80
2018-03-14T04:17:29.827Z,10.33
2018-03-14T04:20:10.931Z,10.27
2018-03-14T04:22:45.280Z,10.80
2018-03-14T04:25:19.035Z,10.57
2018-03-14T04:27:54.891Z,10.53
2018-03-14T04:30:28.716Z,10.47
2018-03-14T04:33:03.034Z,11.20
2018-03-14T04:35:36.932Z,10.77
2018-03-14T04:38:10.804Z,10.90
2018-03-14T04:40:44.683Z,11.53
2018-03-14T04:43:19.559Z,12.20
2018-03-14T04:45:53.869Z,11.47
2018-03-14T04:48:28.693Z,12.30
2018-03-14T04:51:04.758Z,11.40
2018-03-14T04:53:39.384Z,12.60
2018-03-14T04:56:13.642Z,12.27
2018-03-14T04:58:48.103Z,11.97
2018-03-14T05:01:22.905Z,12.33
2018-03-14T05:03:56.736Z,12.90
2018-03-14T05:06:31.497Z,13.27
2018-03-14T05:09:06.210Z,12.97
2018-03-14T05:11:40.023Z,14.57
2018-03-14T05:14:14.117Z,15.67
2018-03-14T05:16:48.526Z,14.20
2018-03-14T05:19:23.625Z,12.53
2018-03-14T05:21:58.111Z,13.47
2018-03-14T05:24:33.437Z,17.00
2018-03-14T05:27:08.137Z,14.73
2018-03-14T05:29:43.284Z,15.20
2018-03-14T05:32:17.445Z,15.83
2018-03-14T05:34:51.079Z,14.00
2018-03-14T05:37:25.939Z,18.37
2018-03-14T05:40:00.610Z,15.90
2018-03-14T05:42:35.869Z,15.17
2018-03-14T05:45:10.848Z,15.23
2018-03-14T05:47:46.503Z,16.50
2018-03-14T05:50:21.239Z,18.40
2018-03-14T05:52:55.294Z,14.97
2018-03-14T05:55:30.037Z,16.63
2018-03-14T05:58:04.375Z,17.37
2018-03-14T06:00:39.045Z,16.47
2018-03-14T06:03:12.843Z,13.70
2018-03-14T06:05:47.580Z,13.87
2018-03-14T06:08:21.513Z,12.33
2018-03-14T06:10:55.436Z,10.47
2018-03-14T06:13:29.228Z,9.93
2018-03-14T06:16:03.290Z,11.23
2018-03-14T06:18:37.268Z,10.90
2018-03-14T06:21:12.020Z,9.90
2018-03-14T06:23:47.413Z,9.13
2018-03-14T06:26:22.206Z,9.47
2018-03-14T06:28:56.866Z,9.13
2018-03-14T06:31:30.803Z,10.23
2018-03-14T06:34:06.112Z,9.87
2018-03-14T06:36:40.530Z,9.07
2018-03-14T06:39:15.774Z,9.50
2018-03-14T06:41:50.295Z,7.60
2018-03-14T06:44:24.145Z,7.93
2018-03-14T06:46:58.210Z,8.37
2018-03-14T06:49:32.627Z,8.03
2018-03-14T06:52:07.433Z,8.23
2018-03-14T06:54:42.087Z,8.07
2018-03-14T06:57:15.818Z,7.53
2018-03-14T07:03:03.923Z,7.93
2018-03-14T07:05:51.429Z,8.37
2018-03-14T07:08:28.058Z,7.63
2018-03-14T07:11:02.386Z,7.40
2018-03-14T07:13:35.982Z,8.40
2018-03-14T07:16:10.079Z,8.33
2018-03-14T07:18:44.916Z,7.70
2018-03-14T07:21:19.447Z,7.60
2018-03-14T07:23:56.200Z,8.00
2018-03-14T07:26:30.104Z,7.63
2018-03-14T07:29:05.247Z,7.70
2018-03-14T07:31:41.827Z,6.97
2018-03-14T07:34:16.235Z,7.67
2018-03-14T07:36:50.344Z,7.13
2018-03-14T07:39:25.419Z,7.23
2018-03-14T07:41:59.503Z,7.17
2018-03-14T07:44:35.746Z,7.57
2018-03-14T07:47:09.572Z,7.17
2018-03-14T07:49:45.907Z,7.60
2018-03-14T07:52:19.931Z,8.20
2018-03-14T07:55:04.402Z,8.50
2018-03-14T07:57:40.050Z,8.87
2018-03-14T08:00:16.181Z,8.57
2018-03-14T08:02:49.694Z,7.83
2018-03-14T08:05:24.911Z,8.33
2018-03-14T08:07:58.635Z,9.53
2018-03-14T08:10:33.942Z,7.93
2018-03-14T08:13:08.387Z,8.90
2018-03-14T08:15:43.352Z,9.00
2018-03-14T08:18:17.844Z,8.93
2018-03-14T08:20:55.026Z,9.27
2018-03-14T08:23:28.731Z,9.17
2018-03-14T08:26:03.678Z,8.80
2018-03-14T08:28:37.589Z,8.30
2018-03-14T08:31:12.604Z,9.30
2018-03-14T08:33:46.619Z,9.20
2018-03-14T08:36:20.336Z,9.67
2018-03-14T08:38:56.056Z,7.90
2018-03-14T08:41:30.511Z,8.47
2018-03-14T08:44:05.803Z,8.23
2018-03-14T08:46:40.259Z,8.23
2018-03-14T08:49:14.467Z,7.87
2018-03-14T08:51:48.988Z,7.67
2018-03-14T08:54:23.934Z,8.43
2018-03-14T08:56:58.656Z,7.17
2018-03-14T08:59:33.481Z,8.37
2018-03-14T09:02:07.587Z,7.13
2018-03-14T09:04:41.892Z,7.20
2018-03-14T09:07:16.936Z,7.67
2018-03-14T09:09:51.880Z,5.23
2018-03-14T09:12:26.925Z,6.30
2018-03-14T09:15:01.619Z,6.27
2018-03-14T09:17:37.980Z,7.93
2018-03-14T09:20:12.392Z,5.80
2018-03-14T09:22:47.830Z,5.37
2018-03-14T09:25:22.458Z,4.73
2018-03-14T09:27:56.276Z,4.50
2018-03-14T09:30:31.481Z,4.20
2018-03-14T09:33:06.541Z,5.63
2018-03-14T09:35:40.555Z,5.10
2018-03-14T09:38:15.396Z,4.93
2018-03-14T09:40:49.285Z,5.10
2018-03-14T09:43:24.112Z,5.50
2018-03-14T09:45:59.068Z,5.20
2018-03-14T09:48:34.148Z,4.40
2018-03-14T09:51:07.974Z,4.80
2018-03-14T09:53:42.427Z,4.87
2018-03-14T09:56:17.333Z,4.60
2018-03-14T09:58:51.437Z,6.17
2018-03-14T10:01:25.659Z,4.83
2018-03-14T10:03:59.565Z,4.80
2018-03-14T10:06:35.199Z,5.73
2018-03-14T10:09:09.140Z,5.57
2018-03-14T10:11:44.053Z,5.13
2018-03-14T10:14:18.027Z,5.27
2018-03-14T10:16:54.730Z,5.10
2018-03-14T10:19:29.535Z,5.33
2018-03-14T10:22:04.249Z,4.93
2018-03-14T10:24:40.083Z,5.20
2018-03-14T10:27:14.810Z,5.30
2018-03-14T10:29:49.596Z,4.90
2018-03-14T10:32:24.423Z,5.57
2018-03-14T10:34:59.366Z,5.70
2018-03-14T10:37:34.078Z,6.17
2018-03-14T10:40:09.312Z,5.17
2018-03-14T10:42:44.131Z,5.37
2018-03-14T10:45:18.456Z,5.37
2018-03-14T10:47:53.912Z,5.33
2018-03-14T10:50:28.019Z,5.90
2018-03-14T10:53:03.562Z,5.00
2018-03-14T10:55:38.521Z,5.13
2018-03-14T10:58:13.164Z,5.13
2018-03-14T11:00:52.764Z,5.93
2018-03-14T11:03:33.311Z,5.20
2018-03-14T11:06:07.820Z,5.47
2018-03-14T11:08:42.678Z,5.80
2018-03-14T11:11:17.889Z,5.50
2018-03-14T11:13:52.043Z,5.83
2018-03-14T11:16:26.833Z,5.53
2018-03-14T11:19:00.545Z,5.50
2018-03-14T11:21:35.381Z,6.20
2018-03-14T11:24:09.184Z,5.50
2018-03-14T11:26:45.435Z,6.10
2018-03-14T11:29:20.060Z,6.47
2018-03-14T11:31:55.094Z,6.33
2018-03-14T11:34:30.554Z,6.90
2018-03-14T11:37:05.395Z,6.13
2018-03-14T11:39:39.683Z,5.67
2018-03-14T11:42:16.063Z,5.50
2018-03-14T11:44:51.685Z,5.40
2018-03-14T11:47:26.414Z,5.53
2018-03-14T11:50:00.227Z,5.80
2018-03-14T11:52:35.282Z,6.03
2018-03-14T11:55:09.379Z,5.80
2018-03-14T11:57:44.911Z,6.37
2018-03-14T12:00:20.972Z,6.20
2018-03-14T12:02:55.811Z,6.57
2018-03-14T12:05:30.021Z,6.37
2018-03-14T12:08:05.347Z,6.03
2018-03-14T12:10:39.158Z,5.80
2018-03-14T12:13:15.109Z,5.73
2018-03-14T12:15:49.760Z,6.20
2018-03-14T12:18:25.837Z,6.23
2018-03-14T12:21:00.099Z,6.37
2018-03-14T12:23:34.842Z,6.40
2018-03-14T12:26:09.247Z,6.13
2018-03-14T12:28:44.394Z,5.83
2018-03-14T12:31:18.191Z,6.03
2018-03-14T12:33:53.852Z,6.03
2018-03-14T12:36:27.798Z,5.97
2018-03-14T12:39:03.981Z,5.90
2018-03-14T12:41:38.434Z,6.50
2018-03-14T12:44:13.217Z,6.40
2018-03-14T12:46:47.155Z,6.27
2018-03-14T12:49:22.049Z,6.50
2018-03-14T12:51:57.235Z,5.63
2018-03-14T12:54:31.955Z,6.53
2018-03-14T12:57:07.718Z,6.20
2018-03-14T12:59:41.824Z,5.77
2018-03-14T13:02:16.152Z,6.40
2018-03-14T13:04:49.881Z,6.43
2018-03-14T13:07:25.318Z,6.20
2018-03-14T13:09:59.103Z,6.37
2018-03-14T13:12:34.550Z,6.80
2018-03-14T13:15:09.676Z,6.20
2018-03-14T13:17:45.384Z,6.43
2018-03-14T13:20:20.147Z,6.43
2018-03-14T13:22:54.861Z,6.20
2018-03-14T13:25:28.971Z,6.90
2018-03-14T13:28:03.070Z,5.53
2018-03-14T13:30:38.158Z,6.17
2018-03-14T13:33:12.122Z,6.83
2018-03-14T13:35:46.526Z,7.20
2018-03-14T13:38:20.551Z,7.00
2018-03-14T13:40:55.674Z,6.27
2018-03-14T13:43:30.411Z,6.40
2018-03-14T13:46:05.149Z,6.63
2018-03-14T13:48:40.277Z,7.53
2018-03-14T13:51:15.424Z,6.53
2018-03-14T13:53:50.035Z,6.60
2018-03-14T13:56:25.288Z,6.83
2018-03-14T13:59:00.316Z,6.40
2018-03-14T14:01:34.807Z,6.80
2018-03-14T14:04:08.923Z,6.77
2018-03-14T14:06:42.733Z,6.40
2018-03-14T14:09:17.150Z,7.00
2018-03-14T14:11:51.627Z,6.37
2018-03-14T14:14:26.925Z,6.33
2018-03-14T14:17:02.024Z,5.97
2018-03-14T14:19:36.370Z,7.13
2018-03-14T14:22:11.551Z,6.37
2018-03-14T14:24:45.825Z,5.93
2018-03-14T14:27:19.733Z,6.17
2018-03-14T14:29:54.760Z,6.30
2018-03-14T14:32:29.491Z,6.00
2018-03-14T14:35:04.038Z,6.20
2018-03-14T14:37:38.347Z,5.80
2018-03-14T14:40:14.966Z,6.50
2018-03-14T14:42:48.811Z,5.90
2018-03-14T14:45:23.919Z,5.37
2018-03-14T14:47:57.861Z,5.53
2018-03-14T14:50:32.984Z,5.30
2018-03-14T14:53:07.619Z,5.60
2018-03-14T14:55:41.714Z,5.17
2018-03-14T14:58:16.844Z,5.80
2018-03-14T15:00:51.780Z,5.70
2018-03-14T15:03:28.089Z,6.30
2018-03-14T15:06:03.611Z,6.07
2018-03-14T15:08:38.613Z,6.37
2018-03-14T15:11:12.669Z,6.30
2018-03-14T15:13:47.150Z,6.17
2018-03-14T15:16:22.903Z,6.33
2018-03-14T15:18:57.828Z,6.90
2018-03-14T15:21:34.348Z,6.90
2018-03-14T15:24:08.677Z,6.13
2018-03-14T15:26:44.634Z,6.57
2018-03-14T15:29:19.296Z,6.57
2018-03-14T15:31:54.637Z,6.50
2018-03-14T15:34:28.851Z,6.07
2018-03-14T15:37:05.725Z,6.50
2018-03-14T15:39:40.243Z,5.80
2018-03-14T15:42:15.259Z,5.73
2018-03-14T15:44:49.891Z,6.37
2018-03-14T15:47:24.553Z,6.07
2018-03-14T15:49:59.453Z,7.57
2018-03-14T15:52:33.897Z,7.43
2018-03-14T15:55:07.903Z,6.90
2018-03-14T15:57:43.139Z,7.00
2018-03-14T16:00:18.166Z,6.60
2018-03-14T16:02:52.352Z,6.90
2018-03-14T16:05:26.191Z,6.87
2018-03-14T16:08:00.881Z,6.33
2018-03-14T16:10:34.772Z,6.43
2018-03-14T16:13:08.524Z,6.93
2018-03-14T16:15:43.546Z,6.90
2018-03-14T16:18:18.267Z,6.53
2018-03-14T16:20:53.915Z,6.90
2018-03-14T16:23:28.540Z,6.13
2018-03-14T16:26:03.176Z,7.13
2018-03-14T16:28:39.229Z,6.87
2018-03-14T16:31:13.878Z,6.63
2018-03-14T16:33:49.307Z,6.37
2018-03-14T16:36:24.194Z,6.43
2018-03-14T16:38:58.175Z,6.30
2018-03-14T16:41:33.372Z,6.33
2018-03-14T16:44:07.470Z,7.37
2018-03-14T16:46:41.280Z,6.37
2018-03-14T16:49:16.528Z,7.00
2018-03-14T16:51:50.419Z,6.37
2018-03-14T16:54:24.453Z,7.00
2018-03-14T16:56:58.771Z,6.80
2018-03-14T16:59:33.091Z,6.80
2018-03-14T17:02:07.403Z,6.50
2018-03-14T17:04:41.200Z,6.20
2018-03-14T17:07:15.619Z,6.00
2018-03-14T17:09:51.355Z,5.87
2018-03-14T17:12:27.332Z,6.10
2018-03-14T17:15:02.110Z,5.90
2018-03-14T17:17:36.572Z,5.73
2018-03-14T17:20:12.019Z,5.93
2018-03-14T17:22:46.123Z,5.77
2018-03-14T17:25:20.606Z,5.83
2018-03-14T17:27:55.639Z,5.77
2018-03-14T17:30:29.778Z,5.47
2018-03-14T17:33:05.517Z,5.90
2018-03-14T17:35:40.259Z,5.43
2018-03-14T17:38:16.027Z,5.20
2018-03-14T17:40:50.579Z,5.47
2018-03-14T17:43:25.871Z,5.40
2018-03-14T17:45:59.763Z,5.60
2018-03-14T17:48:35.012Z,5.60
2018-03-14T17:51:09.243Z,6.40
2018-03-14T17:53:44.048Z,6.30
2018-03-14T17:56:18.782Z,6.43
2018-03-14T17:58:54.533Z,7.13
2018-03-14T18:01:28.687Z,6.93
2018-03-14T18:04:05.628Z,7.63
2018-03-14T18:06:41.293Z,6.73
2018-03-14T18:09:16.010Z,7.03
2018-03-14T18:11:51.044Z,7.10
2018-03-14T18:14:26.181Z,7.70
2018-03-14T18:17:00.259Z,7.63
2018-03-14T18:19:35.015Z,7.97
2018-03-14T18:22:09.725Z,8.40
2018-03-14T18:24:45.066Z,7.23
2018-03-14T18:27:18.875Z,8.03
2018-03-14T18:29:53.469Z,7.73
2018-03-14T18:32:27.712Z,8.13
2018-03-14T18:35:02.628Z,7.23
2018-03-14T18:37:38.186Z,7.27
2018-03-14T18:40:14.180Z,8.13
2018-03-14T18:42:50.522Z,7.50
2018-03-14T18:45:25.663Z,8.07
2018-03-14T18:48:00.386Z,8.83
2018-03-14T18:50:35.095Z,9.00
2018-03-14T18:53:09.411Z,8.37
2018-03-14T18:55:44.668Z,9.13
2018-03-14T18:58:19.380Z,8.97
2018-03-14T19:00:55.729Z,9.37
2018-03-14T19:03:30.839Z,9.83
2018-03-14T19:06:05.108Z,10.10
2018-03-14T19:08:39.863Z,10.70
2018-03-14T19:11:14.654Z,10.83
2018-03-14T19:13:49.999Z,10.50
2018-03-14T19:16:25.364Z,10.97
2018-03-14T19:18:59.993Z,10.30
2018-03-14T19:21:33.957Z,11.07
2018-03-14T19:24:08.025Z,11.83
2018-03-14T19:26:42.098Z,11.53
2018-03-14T19:29:16.543Z,11.60
2018-03-14T19:31:50.575Z,10.43
2018-03-14T19:34:24.279Z,11.07
2018-03-14T19:36:59.172Z,11.47
2018-03-14T19:39:35.151Z,10.80
2018-03-14T19:42:11.254Z,10.30
2018-03-14T19:44:46.294Z,10.67
2018-03-14T19:47:20.192Z,10.50
2018-03-14T19:49:57.700Z,10.47
2018-03-14T19:52:32.712Z,11.50
2018-03-14T19:55:08.669Z,11.47
2018-03-14T19:57:47.400Z,11.07
2018-03-14T20:00:23.733Z,11.40
2018-03-14T20:02:58.877Z,11.17
2018-03-14T20:05:33.698Z,11.13
2018-03-14T20:08:07.784Z,11.00
2018-03-14T20:10:43.787Z,11.53
2018-03-14T20:13:18.637Z,10.07
2018-03-14T20:15:55.394Z,11.23
2018-03-14T20:18:29.915Z,11.33
2018-03-14T20:21:07.611Z,10.23
2018-03-14T20:23:43.903Z,11.00
2018-03-14T20:26:18.804Z,10.40
2018-03-14T20:28:54.564Z,9.67
2018-03-14T20:31:30.294Z,9.97
2018-03-14T20:34:05.522Z,10.03
2018-03-14T20:36:40.269Z,9.73
2018-03-14T20:39:17.045Z,10.17
2018-03-14T20:41:52.711Z,9.70
2018-03-14T20:44:27.429Z,9.50
2018-03-14T20:47:02.367Z,9.97
2018-03-14T20:49:37.595Z,9.90
2018-03-14T20:52:13.953Z,10.10
2018-03-14T20:54:48.471Z,10.27
2018-03-14T20:57:23.919Z,10.17
2018-03-14T20:59:57.918Z,9.47
2018-03-14T21:02:35.574Z,9.63
2018-03-14T21:05:09.327Z,10.10
2018-03-14T21:07:45.174Z,10.27
2018-03-14T21:10:19.272Z,9.87
2018-03-14T21:12:55.639Z,10.87
2018-03-14T21:15:30.193Z,10.07
2018-03-14T21:18:05.828Z,10.40
2018-03-14T21:20:39.795Z,10.43
2018-03-14T21:23:14.650Z,9.90
2018-03-14T21:25:49.922Z,10.07
2018-03-14T21:28:24.628Z,10.60
2018-03-14T21:30:58.638Z,11.50
2018-03-14T21:33:34.379Z,12.13
2018-03-14T21:36:09.936Z,11.67
2018-03-14T21:38:44.844Z,12.03
2018-03-14T21:41:18.872Z,11.17
2018-03-14T21:43:53.307Z,11.50
2018-03-14T21:46:27.296Z,11.67
2018-03-14T21:49:03.412Z,12.03
2018-03-14T21:51:37.860Z,12.77
2018-03-14T21:54:11.999Z,12.33
2018-03-14T21:56:45.900Z,11.47
2018-03-14T21:59:19.806Z,12.10
2018-03-14T22:01:55.140Z,11.97
2018-03-14T22:04:30.800Z,11.23
2018-03-14T22:07:06.933Z,12.00
2018-03-14T22:09:45.372Z,12.13
2018-03-14T22:12:20.089Z,11.60
2018-03-14T22:14:55.969Z,11.90
2018-03-14T22:17:29.841Z,11.57
2018-03-14T22:20:05.278Z,11.07
2018-03-14T22:22:39.725Z,11.77
2018-03-14T22:25:15.129Z,12.80
2018-03-14T22:27:48.849Z,12.50
2018-03-14T22:30:24.802Z,12.53
2018-03-14T22:32:58.607Z,12.27
2018-03-14T22:35:33.119Z,11.80
2018-03-14T22:38:08.040Z,10.90
2018-03-14T22:40:42.174Z,12.03
2018-03-14T22:43:16.987Z,11.37
2018-03-14T22:45:51.213Z,11.83
2018-03-14T22:48:26.139Z,11.57
2018-03-14T22:51:00.149Z,11.53
2018-03-14T22:53:35.796Z,10.43
2018-03-14T22:56:09.607Z,11.23
2018-03-14T22:58:44.845Z,12.60
2018-03-14T23:01:19.087Z,10.77
2018-03-14T23:03:54.800Z,12.60
2018-03-14T23:06:28.806Z,11.87
2018-03-14T23:09:03.144Z,11.57
2018-03-14T23:11:37.039Z,10.70
2018-03-14T23:14:12.496Z,11.67
2018-03-14T23:16:46.917Z,12.47
2018-03-14T23:19:21.840Z,12.83
2018-03-14T23:21:56.251Z,11.50
2018-03-14T23:24:30.667Z,12.63
2018-03-14T23:27:06.936Z,13.47
2018-03-14T23:29:42.068Z,12.63
2018-03-14T23:32:17.735Z,13.27
2018-03-14T23:34:53.470Z,12.47
2018-03-14T23:37:27.315Z,13.40
2018-03-14T23:40:01.398Z,14.03
2018-03-14T23:42:36.403Z,13.90
2018-03-14T23:45:11.055Z,14.30
2018-03-14T23:47:45.454Z,14.43
2018-03-14T23:50:19.268Z,14.97
2018-03-14T23:52:54.507Z,14.70
2018-03-14T23:55:29.636Z,14.83
2018-03-14T23:58:04.667Z,15.37
